Time;durP1;ratioP1;P1;durP2;ratioP2;P2;SDS_P1;SDS_P2;PMS_P1;PMS_P2;Temp;Humidity;BMP_temperature;BMP_pressure;BME280_temperature;BME280_humidity;BME280_pressure;Samples;Min_cycle;Max_cycle;Signal;HPM_P1;HPM_P2
2022/10/11 00:00:33;;;;;;;0.10;0.10;;;13.20;99.90;;;;;;5034010;28;20025;-74
2022/10/11 00:02:59;;;;;;;6.50;3.10;;;13.20;99.90;;;;;;5017915;28;20366;-73
2022/10/11 00:05:25;;;;;;;0.10;0.10;;;13.10;99.90;;;;;;5035486;28;20029;-73
2022/10/11 00:07:50;;;;;;;0.20;0.20;;;13.00;99.90;;;;;;5035591;28;20022;-73
2022/10/11 00:10:17;;;;;;;0.35;0.35;;;12.90;99.90;;;;;;5017839;28;20028;-74
2022/10/11 00:12:43;;;;;;;0.10;0.10;;;12.90;99.90;;;;;;5035482;28;20493;-73
2022/10/11 00:15:13;;;;;;;0.10;0.10;;;12.90;99.90;;;;;;5035285;28;20052;-73
2022/10/11 00:17:39;;;;;;;0.10;0.10;;;13.00;99.90;;;;;;5035879;28;20026;-74
2022/10/11 00:20:05;;;;;;;0.10;0.10;;;12.90;99.90;;;;;;5001438;28;20550;-73
2022/10/11 00:22:31;;;;;;;0.10;0.10;;;13.00;99.90;;;;;;5017650;28;20025;-73
2022/10/11 00:24:58;;;;;;;0.10;0.10;;;13.10;99.90;;;;;;5035137;28;20025;-73
2022/10/11 00:27:24;;;;;;;0.10;0.10;;;13.30;99.90;;;;;;5035247;28;20029;-73
2022/10/11 00:29:49;;;;;;;0.10;0.10;;;13.50;99.90;;;;;;5035160;28;20025;-74
2022/10/11 00:32:15;;;;;;;0.10;0.10;;;13.70;99.90;;;;;;5017672;28;20377;-74
2022/10/11 00:34:41;;;;;;;0.10;0.10;;;13.80;99.90;;;;;;5033787;28;20040;-73
2022/10/11 00:37:07;;;;;;;0.10;0.10;;;13.90;99.90;;;;;;5034921;28;20029;-73
2022/10/11 00:39:33;;;;;;;0.10;0.10;;;14.00;99.90;;;;;;5035105;28;20021;-73
2022/10/11 00:41:59;;;;;;;0.03;0.03;;;14.00;99.90;;;;;;5035050;28;20104;-73
2022/10/11 00:44:28;;;;;;;0.10;0.10;;;14.00;99.90;;;;;;5017119;28;20052;-72
2022/10/11 00:47:01;;;;;;;0.00;0.00;;;14.00;99.90;;;;;;5035023;28;20396;-74
2022/10/11 00:49:39;;;;;;;0.10;0.10;;;14.00;99.90;;;;;;5016990;28;20125;-72
2022/10/11 00:52:30;;;;;;;0.10;0.10;;;14.00;99.90;;;;;;5034865;28;20393;-73
2022/10/11 00:55:13;;;;;;;0.10;0.10;;;13.90;99.90;;;;;;5034625;28;20021;-72
2022/10/11 00:57:45;;;;;;;0.10;0.10;;;13.80;99.90;;;;;;5016933;28;20424;-74
2022/10/11 01:00:13;;;;;;;0.10;0.10;;;13.70;99.90;;;;;;5034678;28;20422;-74
2022/10/11 01:02:40;;;;;;;0.10;0.10;;;13.60;99.90;;;;;;5034632;28;20385;-74
2022/10/11 01:05:08;;;;;;;0.10;0.10;;;13.60;99.90;;;;;;5016606;28;20029;-73
2022/10/11 01:07:36;;;;;;;0.10;0.10;;;13.60;99.90;;;;;;5034499;28;20037;-74
2022/10/11 01:10:02;;;;;;;0.10;0.10;;;13.80;99.90;;;;;;5034289;28;20023;-73
2022/10/11 01:12:30;;;;;;;0.10;0.10;;;13.90;99.90;;;;;;5016759;28;20025;-73
2022/10/11 01:15:17;;;;;;;0.10;0.10;;;14.10;99.90;;;;;;5034264;28;20021;-73
2022/10/11 01:17:59;;;;;;;0.10;0.10;;;14.20;99.90;;;;;;5000217;28;20465;-74
2022/10/11 01:20:44;;;;;;;0.10;0.10;;;14.10;99.90;;;;;;5016703;28;20025;-74
2022/10/11 01:23:27;;;;;;;0.20;0.20;;;14.10;99.90;;;;;;5016594;28;20392;-74
2022/10/11 01:26:03;;;;;;;0.10;0.10;;;13.90;99.90;;;;;;5032739;28;20165;-73
2022/10/11 01:28:34;;;;;;;0.10;0.10;;;13.80;99.90;;;;;;5016472;28;20032;-74
2022/10/11 01:31:25;;;;;;;0.10;0.10;;;13.70;99.90;;;;;;5016461;28;20486;-73
2022/10/11 01:34:02;;;;;;;0.10;0.10;;;13.60;99.90;;;;;;5032749;28;20025;-73
2022/10/11 01:36:46;;;;;;;0.20;0.20;;;13.40;99.90;;;;;;5032503;28;20026;-73
2022/10/11 01:39:25;;;;;;;0.10;0.10;;;13.40;99.90;;;;;;5060881;22;20098;-74
2022/10/11 01:41:54;;;;;;;0.10;0.10;;;13.40;99.90;;;;;;5053691;28;20078;-74
2022/10/11 01:44:24;;;;;;;0.10;0.10;;;13.50;99.90;;;;;;5019127;28;20060;-74
2022/10/11 01:46:51;;;;;;;0.03;0.03;;;13.60;99.90;;;;;;5035825;28;20503;-74
2022/10/11 01:49:17;;;;;;;0.10;0.10;;;13.60;99.90;;;;;;5053747;28;20025;-74
2022/10/11 01:51:49;;;;;;;0.10;0.10;;;13.60;99.90;;;;;;5053723;28;20024;-74
2022/10/11 01:54:32;;;;;;;0.10;0.10;;;13.60;99.90;;;;;;5019173;28;20025;-74
2022/10/11 01:57:24;;;;;;;0.10;0.10;;;13.60;99.90;;;;;;5053404;28;20025;-74
2022/10/11 02:00:00;;;;;;;0.10;0.10;;;13.70;99.90;;;;;;5034969;28;20059;-74
2022/10/11 02:02:44;;;;;;;0.20;0.20;;;13.60;99.90;;;;;;5035647;28;20025;-74
2022/10/11 02:05:16;;;;;;;0.10;0.10;;;13.40;99.90;;;;;;5053116;28;20108;-74
2022/10/11 02:07:55;;;;;;;1.65;0.30;;;13.20;99.90;;;;;;5035582;28;20029;-74
2022/10/11 02:10:29;;;;;;;0.10;0.10;;;13.30;99.90;;;;;;5053243;28;20523;-74
2022/10/11 02:13:22;;;;;;;0.00;0.00;;;13.30;99.90;;;;;;5053204;28;20013;-74
2022/10/11 02:15:51;;;;;;;0.05;0.05;;;13.60;99.90;;;;;;5046591;28;20091;-74
2022/10/11 02:18:22;;;;;;;0.00;0.00;;;13.70;99.90;;;;;;5053084;28;20025;-74
2022/10/11 02:20:49;;;;;;;0.00;0.00;;;13.60;99.90;;;;;;5053292;28;20481;-74
2022/10/11 02:23:30;;;;;;;0.00;0.00;;;13.40;99.90;;;;;;5052291;28;20029;-74
2022/10/11 02:25:57;;;;;;;0.10;0.10;;;13.50;99.90;;;;;;5034784;28;20087;-74
2022/10/11 02:28:28;;;;;;;0.00;0.00;;;13.60;99.90;;;;;;5052809;28;20025;-74
2022/10/11 02:30:57;;;;;;;0.00;0.00;;;13.50;99.90;;;;;;5053131;28;20021;-74
2022/10/11 02:33:29;;;;;;;0.00;0.00;;;13.60;99.90;;;;;;5052753;28;20079;-74
2022/10/11 02:35:59;;;;;;;0.00;0.00;;;13.70;99.90;;;;;;5052595;28;20108;-74
2022/10/11 02:38:35;;;;;;;0.00;0.00;;;13.60;99.90;;;;;;5034575;28;20032;-74
2022/10/11 02:41:11;;;;;;;0.00;0.00;;;13.50;99.90;;;;;;5034949;28;20036;-74
2022/10/11 02:43:52;;;;;;;0.00;0.00;;;13.50;99.90;;;;;;5052586;28;20021;-74
2022/10/11 02:46:18;;;;;;;0.00;0.00;;;13.60;99.90;;;;;;5052560;28;20365;-74
2022/10/11 02:48:44;;;;;;;0.00;0.00;;;13.80;99.90;;;;;;5034801;28;20094;-74
2022/10/11 02:51:13;;;;;;;0.10;0.10;;;13.70;99.90;;;;;;5052472;28;20021;-74
2022/10/11 02:53:39;;;;;;;0.10;0.10;;;13.60;99.90;;;;;;5052257;28;20105;-74
2022/10/11 02:56:05;;;;;;;0.00;0.00;;;13.60;99.90;;;;;;5052262;28;20100;-75
2022/10/11 02:58:30;;;;;;;0.10;0.10;;;13.60;99.90;;;;;;5051110;28;20029;-74
2022/10/11 03:00:56;;;;;;;0.10;0.10;;;13.60;99.90;;;;;;5017952;28;20052;-74
2022/10/11 03:03:22;;;;;;;0.10;0.10;;;13.60;99.90;;;;;;5017917;28;20029;-74
2022/10/11 03:05:48;;;;;;;0.10;0.10;;;13.50;99.90;;;;;;5052029;28;20028;-75
2022/10/11 03:08:15;;;;;;;0.10;0.10;;;13.60;99.90;;;;;;5052314;28;20096;-75
2022/10/11 03:10:41;;;;;;;0.10;0.10;;;13.40;99.90;;;;;;5050998;28;20051;-74
2022/10/11 03:13:07;;;;;;;0.10;0.10;;;13.20;99.90;;;;;;5017871;28;20025;-74
2022/10/11 03:15:33;;;;;;;0.10;0.10;;;13.10;99.90;;;;;;5051930;28;20469;-75
2022/10/11 03:17:59;;;;;;;0.00;0.00;;;13.00;99.90;;;;;;5034332;28;20028;-74
2022/10/11 03:20:25;;;;;;;0.10;0.10;;;13.10;99.90;;;;;;5050831;28;20032;-74
2022/10/11 03:22:51;;;;;;;0.22;0.22;;;13.00;99.90;;;;;;5052242;28;20497;-74
2022/10/11 03:25:17;;;;;;;0.10;0.10;;;13.00;99.90;;;;;;5051866;28;20032;-74
2022/10/11 03:27:43;;;;;;;0.93;0.85;;;13.00;99.90;;;;;;5051964;28;20039;-74
2022/10/11 03:30:10;;;;;;;0.10;0.10;;;12.90;99.90;;;;;;5051925;28;20017;-74
2022/10/11 03:32:36;;;;;;;0.00;0.00;;;12.90;99.90;;;;;;5034116;28;20025;-74
2022/10/11 03:35:02;;;;;;;0.10;0.10;;;13.10;99.90;;;;;;5051748;28;20109;-75
2022/10/11 03:37:28;;;;;;;0.00;0.00;;;13.10;99.90;;;;;;5051895;28;20435;-75
2022/10/11 03:39:53;;;;;;;0.30;0.30;;;13.30;99.90;;;;;;5034034;28;20104;-74
2022/10/11 03:42:19;;;;;;;0.10;0.10;;;13.40;99.90;;;;;;5051854;28;20014;-74
2022/10/11 03:44:48;;;;;;;0.38;0.38;;;13.40;99.90;;;;;;5051471;28;20112;-74
2022/10/11 03:47:14;;;;;;;0.03;0.03;;;13.40;99.90;;;;;;5051980;28;20013;-75
2022/10/11 03:49:40;;;;;;;0.00;0.00;;;13.40;99.90;;;;;;5051796;28;20074;-74
2022/10/11 03:52:06;;;;;;;0.00;0.00;;;13.30;99.90;;;;;;5051709;28;20029;-74
2022/10/11 03:54:32;;;;;;;1.17;1.17;;;13.40;99.90;;;;;;5033739;28;20092;-75
2022/10/11 03:56:57;;;;;;;0.10;0.10;;;13.40;99.90;;;;;;5051685;28;20031;-75
2022/10/11 03:59:23;;;;;;;0.65;0.65;;;13.20;99.90;;;;;;5050424;28;20029;-74
2022/10/11 04:01:49;;;;;;;0.05;0.05;;;13.30;99.90;;;;;;5051585;28;20106;-74
2022/10/11 04:04:15;;;;;;;0.00;0.00;;;13.30;99.90;;;;;;5051555;28;20021;-74
2022/10/11 04:06:41;;;;;;;0.08;0.08;;;13.40;99.90;;;;;;5050107;28;20036;-75
2022/10/11 04:09:06;;;;;;;0.00;0.00;;;13.50;99.90;;;;;;5051401;28;20032;-75
2022/10/11 04:11:32;;;;;;;0.90;0.90;;;13.60;99.90;;;;;;5033658;28;20432;-75
2022/10/11 04:13:58;;;;;;;1.27;0.52;;;13.70;99.90;;;;;;5033704;28;20024;-75
2022/10/11 04:16:24;;;;;;;0.00;0.00;;;13.50;99.90;;;;;;5033424;28;20075;-74
2022/10/11 04:18:50;;;;;;;0.10;0.10;;;13.40;99.90;;;;;;5051800;28;20025;-75
2022/10/11 04:21:16;;;;;;;0.10;0.10;;;13.40;99.90;;;;;;5051480;28;20025;-75
2022/10/11 04:23:42;;;;;;;5.38;1.27;;;13.30;99.90;;;;;;5033474;28;20035;-75
2022/10/11 04:26:08;;;;;;;0.20;0.20;;;13.30;99.90;;;;;;5033359;28;20033;-75
2022/10/11 04:28:34;;;;;;;0.00;0.00;;;13.30;99.90;;;;;;5051317;28;20072;-74
2022/10/11 04:31:00;;;;;;;0.00;0.00;;;13.20;99.90;;;;;;5051468;28;20025;-74
2022/10/11 04:33:25;;;;;;;0.00;0.00;;;13.20;99.90;;;;;;5033636;28;20021;-75
2022/10/11 04:35:55;;;;;;;0.00;0.00;;;13.20;99.90;;;;;;5051148;28;20033;-75
2022/10/11 04:38:22;;;;;;;0.00;0.00;;;13.20;99.90;;;;;;5033213;28;20037;-75
2022/10/11 04:40:48;;;;;;;1.08;0.50;;;13.30;99.90;;;;;;5033454;28;20116;-75
2022/10/11 04:43:15;;;;;;;0.10;0.10;;;13.30;99.90;;;;;;5051470;28;20104;-75
2022/10/11 04:45:42;;;;;;;0.10;0.10;;;13.30;99.90;;;;;;5034262;28;20044;-75
2022/10/11 04:48:07;;;;;;;0.10;0.10;;;13.30;99.90;;;;;;5037069;28;20081;-75
2022/10/11 04:50:33;;;;;;;0.00;0.00;;;13.30;99.90;;;;;;5054900;28;20104;-75
2022/10/11 04:52:59;;;;;;;0.00;0.00;;;13.40;99.90;;;;;;5037260;28;20025;-75
2022/10/11 04:55:25;;;;;;;0.10;0.10;;;13.50;99.90;;;;;;5054754;28;20024;-75
2022/10/11 04:57:51;;;;;;;0.00;0.00;;;13.40;99.90;;;;;;5054678;28;20060;-75
2022/10/11 05:00:17;;;;;;;0.00;0.00;;;13.40;99.90;;;;;;5055266;28;20079;-74
2022/10/11 05:02:42;;;;;;;0.10;0.10;;;13.40;99.90;;;;;;5054668;28;20500;-75
2022/10/11 05:05:09;;;;;;;0.10;0.10;;;13.30;99.90;;;;;;5053081;28;20112;-75
2022/10/11 05:07:34;;;;;;;0.00;0.00;;;13.40;99.90;;;;;;5020278;28;20094;-75
2022/10/11 05:10:00;;;;;;;0.10;0.10;;;13.50;99.90;;;;;;5059442;28;20009;-75
2022/10/11 05:12:27;;;;;;;0.00;0.00;;;13.60;99.90;;;;;;5070853;28;20032;-75
2022/10/11 05:14:53;;;;;;;0.00;0.00;;;13.70;99.90;;;;;;5074317;28;20388;-74
2022/10/11 05:17:18;;;;;;;0.10;0.10;;;13.70;99.90;;;;;;5052879;28;20023;-75
2022/10/11 05:19:44;;;;;;;0.00;0.00;;;13.70;99.90;;;;;;5054168;28;20465;-74
2022/10/11 05:22:10;;;;;;;0.10;0.10;;;13.60;99.90;;;;;;5036901;28;20040;-75
2022/10/11 05:24:36;;;;;;;0.00;0.00;;;13.50;99.90;;;;;;5054308;28;20044;-74
2022/10/11 05:27:02;;;;;;;0.10;0.10;;;13.50;99.90;;;;;;5067335;28;20017;-74
2022/10/11 05:29:28;;;;;;;0.10;0.10;;;13.50;99.90;;;;;;5056136;28;20031;-74
2022/10/11 05:31:53;;;;;;;0.00;0.00;;;13.40;99.90;;;;;;5056359;28;20582;-74
2022/10/11 05:34:19;;;;;;;0.00;0.00;;;13.30;99.90;;;;;;5073750;28;20025;-74
2022/10/11 05:36:45;;;;;;;0.00;0.00;;;13.30;99.90;;;;;;5073799;28;20048;-75
2022/10/11 05:39:11;;;;;;;0.10;0.10;;;13.30;99.90;;;;;;5055859;28;20043;-74
2022/10/11 05:41:36;;;;;;;0.00;0.00;;;13.30;99.90;;;;;;5073185;28;20031;-74
2022/10/11 05:44:02;;;;;;;0.00;0.00;;;13.30;99.90;;;;;;5037715;28;20118;-74
2022/10/11 05:46:28;;;;;;;0.03;0.03;;;13.30;99.90;;;;;;5072104;28;20028;-74
2022/10/11 05:48:54;;;;;;;0.00;0.00;;;13.30;99.90;;;;;;5070228;28;20017;-74
2022/10/11 05:51:20;;;;;;;0.00;0.00;;;13.40;99.90;;;;;;5030610;28;20036;-75
2022/10/11 05:53:46;;;;;;;0.00;0.00;;;13.50;99.90;;;;;;5061989;28;20441;-75
2022/10/11 05:56:18;;;;;;;0.50;0.50;;;13.50;99.90;;;;;;5053822;28;20025;-74
2022/10/11 05:58:43;;;;;;;0.10;0.10;;;13.50;99.90;;;;;;5052869;28;20498;-75
2022/10/11 06:01:21;;;;;;;0.10;0.10;;;13.60;99.90;;;;;;5054089;28;20041;-75
2022/10/11 06:03:47;;;;;;;0.00;0.00;;;13.50;99.90;;;;;;5053677;28;20024;-75
2022/10/11 06:06:13;;;;;;;0.00;0.00;;;13.50;99.90;;;;;;5053633;28;20021;-75
2022/10/11 06:08:39;;;;;;;0.00;0.00;;;13.50;99.90;;;;;;5054853;28;20025;-77
2022/10/11 06:11:10;;;;;;;0.00;0.00;;;13.50;99.90;;;;;;5043527;28;20354;-75
2022/10/11 06:13:36;;;;;;;0.07;0.07;;;13.40;99.90;;;;;;5063370;28;20021;-78
2022/10/11 06:16:05;;;;;;;0.03;0.03;;;13.30;99.90;;;;;;5038272;28;20028;-75
2022/10/11 06:18:31;;;;;;;1.08;0.47;;;13.40;99.90;;;;;;5053168;28;20495;-73
2022/10/11 06:20:58;;;;;;;0.10;0.10;;;13.30;99.90;;;;;;5053424;28;20028;-73
2022/10/11 06:23:23;;;;;;;0.10;0.10;;;13.30;99.90;;;;;;5062679;28;20419;-74
2022/10/11 06:26:06;;;;;;;0.00;0.00;;;13.30;99.90;;;;;;5055140;28;20082;-74
2022/10/11 06:28:33;;;;;;;0.00;0.00;;;13.40;99.90;;;;;;5054905;28;20051;-74
2022/10/11 06:31:01;;;;;;;0.00;0.00;;;13.40;99.90;;;;;;5072210;28;20031;-73
2022/10/11 06:33:27;;;;;;;1.95;1.85;;;13.40;99.90;;;;;;5072869;28;20088;-74
2022/10/11 06:36:02;;;;;;;0.00;0.00;;;13.50;99.90;;;;;;5072636;28;20021;-74
2022/10/11 06:38:28;;;;;;;0.00;0.00;;;13.40;99.90;;;;;;5042536;28;20164;-74
2022/10/11 06:40:54;;;;;;;0.00;0.00;;;13.40;99.90;;;;;;5052951;28;20075;-74
2022/10/11 06:43:20;;;;;;;0.10;0.10;;;13.40;99.90;;;;;;5034778;28;20104;-74
2022/10/11 06:45:46;;;;;;;0.10;0.10;;;13.40;99.90;;;;;;5034558;28;20043;-74
2022/10/11 06:48:12;;;;;;;0.10;0.10;;;13.50;99.90;;;;;;5034729;28;20127;-73
2022/10/11 06:50:37;;;;;;;0.55;0.50;;;13.50;99.90;;;;;;5034816;28;20045;-74
2022/10/11 06:53:06;;;;;;;0.22;0.22;;;13.50;99.90;;;;;;5052426;28;20021;-75
2022/10/11 06:55:32;;;;;;;0.05;0.05;;;13.40;99.90;;;;;;5034528;28;20017;-74
2022/10/11 06:57:58;;;;;;;0.00;0.00;;;13.50;99.90;;;;;;5034777;28;20040;-74
2022/10/11 07:00:23;;;;;;;0.10;0.10;;;13.70;99.90;;;;;;5052484;28;20025;-74
2022/10/11 07:02:49;;;;;;;0.00;0.00;;;13.70;99.90;;;;;;5052148;28;20074;-74
2022/10/11 07:05:16;;;;;;;0.88;0.40;;;13.80;99.90;;;;;;5033882;28;20074;-75
2022/10/11 07:07:42;;;;;;;0.00;0.00;;;13.80;99.90;;;;;;5052076;28;20096;-75
2022/10/11 07:10:08;;;;;;;0.73;0.73;;;13.90;99.90;;;;;;5034303;28;20056;-74
2022/10/11 07:12:34;;;;;;;0.13;0.13;;;14.10;99.90;;;;;;5034117;28;20025;-74
2022/10/11 07:15:00;;;;;;;0.10;0.10;;;14.10;99.90;;;;;;5051921;28;20043;-74
2022/10/11 07:17:25;;;;;;;0.00;0.00;;;14.00;99.90;;;;;;5034206;28;20021;-74
2022/10/11 07:19:51;;;;;;;0.00;0.00;;;14.10;99.90;;;;;;5051774;28;20506;-74
2022/10/11 07:22:17;;;;;;;0.00;0.00;;;14.10;99.90;;;;;;5034083;28;20025;-74
2022/10/11 07:24:43;;;;;;;0.00;0.00;;;14.10;99.90;;;;;;5034169;28;20021;-74
2022/10/11 07:27:09;;;;;;;0.20;0.20;;;14.20;99.90;;;;;;5034199;28;20053;-75
2022/10/11 07:29:35;;;;;;;0.10;0.10;;;14.30;99.90;;;;;;5051822;28;20074;-75
2022/10/11 07:32:00;;;;;;;0.00;0.00;;;14.30;99.90;;;;;;5034123;28;20439;-75
2022/10/11 07:34:26;;;;;;;0.00;0.00;;;14.40;99.90;;;;;;5033912;28;20032;-75
2022/10/11 07:36:52;;;;;;;0.10;0.10;;;14.40;99.90;;;;;;5051651;28;20425;-75
2022/10/11 07:39:18;;;;;;;0.00;0.00;;;14.50;99.90;;;;;;5044492;22;20092;-73
2022/10/11 07:41:43;;;;;;;0.10;0.10;;;14.70;99.90;;;;;;5011277;28;20053;-73
2022/10/11 07:44:09;;;;;;;0.10;0.10;;;14.90;99.90;;;;;;4994825;28;20030;-73
2022/10/11 07:46:35;;;;;;;0.10;0.10;;;14.90;99.90;;;;;;5011891;28;20037;-73
2022/10/11 07:49:01;;;;;;;0.10;0.10;;;15.00;99.90;;;;;;4994468;28;20070;-73
2022/10/11 07:51:26;;;;;;;0.08;0.08;;;15.10;99.90;;;;;;4978473;28;20041;-73
2022/10/11 07:53:55;;;;;;;0.00;0.00;;;15.10;99.90;;;;;;4994482;28;20029;-73
2022/10/11 07:56:26;;;;;;;0.10;0.10;;;15.10;99.90;;;;;;5011855;28;20025;-73
2022/10/11 07:58:54;;;;;;;0.07;0.07;;;15.10;99.90;;;;;;4994258;28;20049;-74
2022/10/11 08:01:20;;;;;;;0.10;0.10;;;15.10;99.90;;;;;;4994434;28;20028;-73
2022/10/11 08:03:47;;;;;;;0.10;0.10;;;15.10;99.90;;;;;;4991601;28;20030;-73
2022/10/11 08:06:15;;;;;;;0.10;0.10;;;15.10;99.90;;;;;;5017791;28;20022;-73
2022/10/11 08:08:41;;;;;;;0.10;0.10;;;15.10;99.90;;;;;;5019678;28;20117;-73
2022/10/11 08:11:07;;;;;;;0.70;0.70;;;15.30;99.90;;;;;;5011927;28;20565;-73
2022/10/11 08:13:33;;;;;;;0.00;0.00;;;15.30;99.90;;;;;;4994037;28;20019;-76
2022/10/11 08:16:00;;;;;;;0.00;0.00;;;15.40;99.90;;;;;;4994040;28;20362;-72
2022/10/11 08:18:26;;;;;;;0.10;0.10;;;15.40;99.90;;;;;;4994260;28;20099;-73
2022/10/11 08:20:51;;;;;;;0.10;0.10;;;15.30;99.90;;;;;;5018503;28;20029;-73
2022/10/11 08:23:18;;;;;;;0.10;0.10;;;15.40;99.90;;;;;;5032867;28;20033;-73
2022/10/11 08:25:45;;;;;;;0.10;0.10;;;15.40;99.90;;;;;;5015172;28;20030;-73
2022/10/11 08:28:16;;;;;;;0.10;0.10;;;15.40;99.90;;;;;;5005308;28;20480;-72
2022/10/11 08:30:49;;;;;;;0.10;0.10;;;15.40;99.90;;;;;;5035268;28;20028;-73
2022/10/11 08:33:20;;;;;;;0.10;0.10;;;15.70;99.90;;;;;;5035053;28;20029;-72
2022/10/11 08:35:46;;;;;;;0.00;0.00;;;15.80;99.90;;;;;;5034613;28;20096;-74
2022/10/11 08:38:12;;;;;;;0.10;0.10;;;15.90;99.90;;;;;;4997759;28;20038;-73
2022/10/11 08:40:47;;;;;;;0.10;0.10;;;16.00;99.90;;;;;;4997613;28;20059;-73
2022/10/11 08:43:37;;;;;;;0.10;0.10;;;16.20;99.90;;;;;;5015079;28;20480;-72
2022/10/11 08:46:06;;;;;;;0.00;0.00;;;16.20;99.90;;;;;;5003840;28;20559;-73
2022/10/11 08:48:45;;;;;;;0.03;0.03;;;16.20;99.90;;;;;;4997299;28;20026;-73
2022/10/11 08:51:21;;;;;;;0.10;0.10;;;16.30;99.90;;;;;;5014957;28;20026;-73
2022/10/11 08:53:50;;;;;;;0.13;0.13;;;16.30;99.90;;;;;;5022598;28;20044;-73
2022/10/11 08:56:17;;;;;;;0.13;0.13;;;16.30;99.90;;;;;;5016731;28;20108;-73
2022/10/11 08:59:03;;;;;;;0.10;0.10;;;16.50;99.90;;;;;;5034511;28;20506;-73
2022/10/11 09:01:30;;;;;;;0.10;0.10;;;16.70;99.90;;;;;;5034618;28;20029;-73
2022/10/11 09:03:58;;;;;;;0.10;0.10;;;16.70;99.90;;;;;;5011392;28;20022;-73
2022/10/11 09:06:53;;;;;;;0.63;0.63;;;16.60;99.90;;;;;;4980843;28;20405;-73
2022/10/11 09:09:25;;;;;;;0.10;0.10;;;16.60;99.90;;;;;;5014647;28;20030;-74
2022/10/11 09:11:57;;;;;;;;;;;16.50;99.90;;;;;;5015113;28;20443;-73
2022/10/11 09:14:36;;;;;;;0.17;0.17;;;16.50;99.90;;;;;;4996946;28;20424;-73
2022/10/11 09:17:20;;;;;;;0.75;0.73;;;16.80;99.90;;;;;;5014391;28;20036;-73
2022/10/11 09:20:19;;;;;;;0.10;0.10;;;17.00;99.90;;;;;;5014552;28;20088;-73
2022/10/11 09:22:51;;;;;;;0.98;0.98;;;17.10;99.90;;;;;;5014595;28;20026;-73
2022/10/11 09:25:34;;;;;;;;;;;17.00;99.90;;;;;;5014614;28;20515;-73
2022/10/11 09:28:37;;;;;;;0.10;0.10;;;17.20;99.90;;;;;;4996741;28;19910;-73
2022/10/11 09:31:02;;;;;;;0.20;0.20;;;17.40;99.90;;;;;;4996694;28;20049;-74
2022/10/11 09:33:33;;;;;;;0.10;0.10;;;17.80;99.90;;;;;;5014379;28;20057;-74
2022/10/11 09:36:00;;;;;;;0.10;0.10;;;18.00;99.90;;;;;;4996354;28;20026;-74
2022/10/11 09:39:01;;;;;;;0.10;0.10;;;18.60;99.90;;;;;;5014175;28;20481;-73
2022/10/11 09:41:57;;;;;;;0.10;0.10;;;19.10;99.90;;;;;;5014224;28;20026;-73
2022/10/11 09:44:31;;;;;;;0.10;0.10;;;19.40;99.90;;;;;;5013686;28;20030;-74
2022/10/11 09:46:57;;;;;;;0.50;0.50;;;19.50;99.90;;;;;;4996492;28;20026;-73
2022/10/11 09:49:37;;;;;;;0.10;0.10;;;19.30;99.90;;;;;;5014105;28;20022;-73
2022/10/11 09:52:05;;;;;;;0.10;0.10;;;19.40;99.90;;;;;;5013934;28;20033;-73
2022/10/11 09:54:43;;;;;;;0.10;0.10;;;19.70;99.90;;;;;;5013772;28;20401;-73
2022/10/11 09:57:21;;;;;;;0.13;0.13;;;19.60;99.90;;;;;;4996114;28;20036;-74
2022/10/11 10:00:00;;;;;;;0.20;0.20;;;19.60;99.90;;;;;;5013833;28;20038;-73
2022/10/11 10:02:28;;;;;;;0.10;0.10;;;19.30;99.90;;;;;;4996065;28;20026;-74
2022/10/11 10:04:54;;;;;;;0.40;0.40;;;19.00;99.90;;;;;;5013387;28;20026;-73
2022/10/11 10:07:20;;;;;;;0.10;0.10;;;18.90;99.90;;;;;;4979736;28;20032;-74
2022/10/11 10:09:46;;;;;;;0.10;0.10;;;19.20;99.90;;;;;;5013472;28;20040;-73
2022/10/11 10:12:18;;;;;;;3.00;2.80;;;19.70;99.90;;;;;;5013479;28;20018;-74
2022/10/11 10:14:52;;;;;;;;;;;20.20;99.90;;;;;;4996073;28;20030;-74
2022/10/11 10:17:19;;;;;;;0.10;0.10;;;20.40;99.90;;;;;;5013392;28;20285;-74
2022/10/11 10:19:52;;;;;;;0.28;0.28;;;20.90;99.90;;;;;;5013483;28;20105;-74
2022/10/11 10:22:21;;;;;;;0.08;0.08;;;21.40;99.90;;;;;;4995744;28;20125;-74
2022/10/11 10:24:48;;;;;;;0.45;0.45;;;21.60;99.90;;;;;;5013148;28;20033;-74
2022/10/11 10:27:17;;;;;;;0.10;0.10;;;21.40;99.90;;;;;;5013259;28;20466;-74
2022/10/11 10:30:09;;;;;;;1.65;0.90;;;21.40;99.90;;;;;;5013059;28;20068;-74
2022/10/11 10:33:02;;;;;;;0.10;0.10;;;21.30;99.90;;;;;;4995984;28;20062;-74
2022/10/11 10:35:33;;;;;;;0.10;0.10;;;21.20;99.90;;;;;;5012870;28;20026;-74
2022/10/11 10:38:21;;;;;;;0.28;0.28;;;21.20;99.90;;;;;;5013136;28;20426;-73
2022/10/11 10:40:52;;;;;;;0.10;0.10;;;20.80;99.90;;;;;;5013036;28;20061;-73
2022/10/11 10:43:24;;;;;;;0.15;0.15;;;21.00;99.90;;;;;;5012457;28;20396;-73
2022/10/11 10:46:14;;;;;;;0.10;0.10;;;20.80;99.90;;;;;;5012374;28;20363;-73
2022/10/11 10:49:14;;;;;;;0.55;0.40;;;20.30;99.90;;;;;;4995419;28;20026;-73
2022/10/11 10:52:04;;;;;;;0.43;0.43;;;20.10;99.90;;;;;;4995101;28;20056;-73
2022/10/11 10:54:58;;;;;;;0.20;0.20;;;19.90;99.90;;;;;;5012627;28;20037;-73
2022/10/11 10:57:47;;;;;;;0.10;0.10;;;19.50;99.90;;;;;;4994516;28;20080;-73
2022/10/11 11:00:19;;;;;;;0.10;0.10;;;19.60;99.90;;;;;;4987790;28;20033;-73
2022/10/11 11:02:59;;;;;;;0.10;0.10;;;19.50;99.90;;;;;;5012318;28;20503;-73
2022/10/11 11:05:30;;;;;;;0.10;0.10;;;19.40;99.90;;;;;;5012308;28;20386;-73
2022/10/11 11:08:15;;;;;;;0.20;0.20;;;19.30;99.90;;;;;;5012399;28;20218;-73
2022/10/11 11:11:06;;;;;;;0.10;0.10;;;19.30;99.90;;;;;;5012644;28;20026;-73
2022/10/11 11:13:50;;;;;;;0.10;0.10;;;19.50;99.90;;;;;;4994735;28;20022;-73
2022/10/11 11:16:30;;;;;;;0.95;0.95;;;19.30;99.90;;;;;;5012238;28;20379;-73
2022/10/11 11:19:19;;;;;;;0.10;0.10;;;19.20;99.90;;;;;;5012143;28;20037;-73
2022/10/11 11:22:03;;;;;;;0.10;0.10;;;19.40;99.90;;;;;;4994675;28;20030;-73
2022/10/11 11:24:56;;;;;;;0.10;0.10;;;20.10;99.90;;;;;;5012199;28;20053;-73
2022/10/11 11:27:28;;;;;;;0.10;0.10;;;21.20;99.90;;;;;;5012255;28;20033;-73
2022/10/11 11:30:03;;;;;;;0.10;0.10;;;21.70;99.90;;;;;;5011988;28;20034;-73
2022/10/11 11:33:13;;;;;;;0.22;0.22;;;22.30;99.10;;;;;;5012218;28;20108;-73
2022/10/11 11:35:47;;;;;;;7.53;0.73;;;22.20;98.10;;;;;;4951136;28;20031;-73
2022/10/11 11:38:21;;;;;;;0.00;0.00;;;22.00;98.90;;;;;;5002738;28;20049;-73
2022/10/11 11:40:53;;;;;;;0.00;0.00;;;22.30;99.00;;;;;;4994465;28;20440;-73
2022/10/11 11:43:31;;;;;;;0.10;0.10;;;22.60;98.00;;;;;;5011996;28;20026;-73
2022/10/11 11:46:16;;;;;;;2.75;0.90;;;22.80;96.30;;;;;;4994166;28;20041;-73
2022/10/11 11:48:43;;;;;;;0.20;0.20;;;22.70;95.30;;;;;;5011739;28;20033;-73
2022/10/11 11:51:17;;;;;;;0.00;0.00;;;22.80;94.90;;;;;;5011868;28;20048;-72
2022/10/11 11:54:05;;;;;;;0.13;0.10;;;23.40;94.40;;;;;;5011845;28;20481;-73
2022/10/11 11:56:56;;;;;;;0.22;0.20;;;23.40;93.90;;;;;;5014210;28;20831;-72
2022/10/11 11:59:45;;;;;;;0.00;0.00;;;22.70;94.60;;;;;;5015844;28;20425;-73
2022/10/11 12:02:29;;;;;;;0.10;0.10;;;22.20;96.60;;;;;;5015817;28;20034;-73
2022/10/11 12:04:56;;;;;;;0.10;0.10;;;22.10;97.20;;;;;;5015509;28;20041;-73
2022/10/11 12:07:24;;;;;;;0.22;0.22;;;22.20;97.30;;;;;;5015706;28;20080;-73
2022/10/11 12:10:24;;;;;;;0.08;0.08;;;21.80;97.30;;;;;;5015799;28;20030;-74
2022/10/11 12:13:14;;;;;;;2.20;0.63;;;21.30;98.70;;;;;;4998069;28;20076;-73
2022/10/11 12:16:08;;;;;;;0.73;0.73;;;20.70;99.90;;;;;;5015519;28;20049;-73
2022/10/11 12:18:45;;;;;;;0.10;0.10;;;20.40;99.90;;;;;;5015636;28;20105;-73
2022/10/11 12:21:39;;;;;;;0.10;0.10;;;20.40;99.90;;;;;;5015545;28;20033;-73
2022/10/11 12:24:20;;;;;;;0.32;0.32;;;20.20;99.90;;;;;;4997934;28;20052;-74
2022/10/11 12:26:48;;;;;;;0.10;0.10;;;19.80;99.90;;;;;;5015317;28;20393;-73
2022/10/11 12:29:49;;;;;;;0.10;0.10;;;19.80;99.90;;;;;;5015146;28;20022;-74
2022/10/11 12:32:26;;;;;;;0.20;0.20;;;19.60;99.90;;;;;;5015511;28;20029;-74
2022/10/11 12:35:35;;;;;;;0.13;0.13;;;19.60;99.90;;;;;;5015150;28;20030;-74
2022/10/11 12:38:20;;;;;;;0.30;0.30;;;19.60;99.90;;;;;;4998048;28;20037;-74
2022/10/11 12:40:48;;;;;;;0.10;0.10;;;19.80;99.90;;;;;;5015296;28;20038;-73
2022/10/11 12:43:13;;;;;;;0.00;0.00;;;19.80;99.90;;;;;;5015049;28;20056;-74
2022/10/11 12:45:42;;;;;;;0.10;0.10;;;19.80;99.90;;;;;;5014630;28;20497;-74
2022/10/11 12:48:22;;;;;;;0.10;0.10;;;19.90;99.90;;;;;;5014800;28;20438;-74
2022/10/11 12:50:59;;;;;;;0.00;0.00;;;19.90;99.90;;;;;;5015004;28;20355;-74
2022/10/11 12:53:51;;;;;;;0.10;0.10;;;19.60;99.90;;;;;;5014934;28;20101;-74
2022/10/11 12:56:35;;;;;;;0.30;0.30;;;19.50;99.90;;;;;;5014761;28;20033;-74
2022/10/11 12:59:06;;;;;;;0.10;0.10;;;19.60;99.90;;;;;;5014978;28;20474;-74
2022/10/11 13:01:35;;;;;;;0.00;0.00;;;19.70;99.90;;;;;;5014820;28;20057;-74
2022/10/11 13:04:10;;;;;;;0.47;0.45;;;19.70;99.90;;;;;;5014548;28;20065;-74
2022/10/11 13:06:55;;;;;;;0.10;0.10;;;19.70;99.90;;;;;;5014028;28;20029;-74
2022/10/11 13:09:35;;;;;;;0.03;0.03;;;19.60;99.90;;;;;;4996857;28;20033;-74
2022/10/11 13:12:11;;;;;;;0.10;0.10;;;19.60;99.90;;;;;;5014698;28;20022;-74